Time;durP1;ratioP1;P1;durP2;ratioP2;P2;SDS_P1;SDS_P2;PMS_P1;PMS_P2;Temp;Humidity;BMP_temperature;BMP_pressure;BME280_temperature;BME280_humidity;BME280_pressure;Samples;Min_cycle;Max_cycle;Signal;HPM_P1;HPM_P2
2021/11/15 00:01:43;;;;;;;1.58;1.40;;;19.00;54.60;;;;;;5089051;28;20036;-50
2021/11/15 00:04:13;;;;;;;2.90;2.28;;;19.00;54.60;;;;;;5101598;28;20035;-48
2021/11/15 00:06:40;;;;;;;2.60;2.50;;;19.00;54.60;;;;;;5087811;28;20130;-52
2021/11/15 00:09:07;;;;;;;2.38;1.77;;;18.90;54.50;;;;;;5093717;28;20500;-50
2021/11/15 00:11:36;;;;;;;2.17;1.92;;;18.90;54.60;;;;;;5085329;28;20050;-51
2021/11/15 00:14:04;;;;;;;1.70;1.65;;;18.90;54.50;;;;;;5089426;28;20035;-50
2021/11/15 00:16:31;;;;;;;3.60;2.42;;;18.90;54.60;;;;;;5091385;28;20044;-49
2021/11/15 00:18:58;;;;;;;2.25;2.05;;;18.90;54.60;;;;;;5089328;28;20055;-48
2021/11/15 00:21:25;;;;;;;3.00;2.35;;;18.90;54.60;;;;;;5089317;28;20055;-49
2021/11/15 00:23:53;;;;;;;2.00;1.73;;;18.90;54.50;;;;;;5094740;28;20461;-49
2021/11/15 00:26:22;;;;;;;1.88;1.65;;;18.90;54.60;;;;;;5094924;28;20056;-47
2021/11/15 00:28:50;;;;;;;4.35;2.20;;;18.90;54.50;;;;;;5092209;28;20032;-48
2021/11/15 00:31:19;;;;;;;1.50;1.40;;;18.90;54.50;;;;;;5089550;28;20118;-48
2021/11/15 00:33:46;;;;;;;3.30;1.92;;;18.90;54.60;;;;;;5072733;28;20035;-48
2021/11/15 00:36:13;;;;;;;1.90;1.77;;;18.90;54.60;;;;;;5093871;28;20455;-53
2021/11/15 00:38:40;;;;;;;1.90;1.75;;;18.80;54.50;;;;;;5090398;28;20074;-49
2021/11/15 00:41:08;;;;;;;2.72;1.83;;;18.80;54.50;;;;;;5088127;28;20032;-49
2021/11/15 00:43:35;;;;;;;1.55;1.45;;;18.80;54.50;;;;;;5096358;28;20400;-50
2021/11/15 00:46:04;;;;;;;1.38;1.27;;;18.80;54.50;;;;;;5099341;28;20128;-50
2021/11/15 00:48:31;;;;;;;2.05;1.60;;;18.80;54.50;;;;;;5088471;28;20031;-50
2021/11/15 00:50:59;;;;;;;2.00;1.88;;;18.80;55.10;;;;;;5084885;28;20048;-49
2021/11/15 00:53:27;;;;;;;1.65;1.60;;;18.80;54.40;;;;;;5084703;28;20040;-46
2021/11/15 00:55:54;;;;;;;1.70;1.60;;;18.80;54.40;;;;;;5084067;28;20442;-52
2021/11/15 00:58:21;;;;;;;1.40;1.30;;;18.80;54.40;;;;;;5097804;28;20522;-52
2021/11/15 01:00:49;;;;;;;3.20;2.58;;;18.80;54.40;;;;;;5084756;28;20032;-46
2021/11/15 01:03:17;;;;;;;1.40;1.30;;;18.80;54.50;;;;;;5090684;28;20713;-51
2021/11/15 01:05:48;;;;;;;1.48;1.38;;;18.80;54.50;;;;;;5089933;28;20044;-52
2021/11/15 01:08:17;;;;;;;1.67;1.58;;;18.80;54.40;;;;;;5090560;28;20032;-53
2021/11/15 01:10:44;;;;;;;1.35;1.25;;;18.70;54.40;;;;;;5090564;28;20032;-50
2021/11/15 01:13:12;;;;;;;1.58;1.48;;;18.70;54.40;;;;;;5088076;28;20055;-48
2021/11/15 01:15:40;;;;;;;1.45;1.35;;;18.70;54.40;;;;;;5086048;28;20047;-49
2021/11/15 01:18:08;;;;;;;1.92;1.83;;;18.70;54.40;;;;;;5101398;28;20043;-47
2021/11/15 01:20:36;;;;;;;1.65;1.55;;;18.70;54.40;;;;;;5075322;28;20382;-51
2021/11/15 01:23:05;;;;;;;1.35;1.25;;;18.70;54.40;;;;;;5083619;28;20385;-48
2021/11/15 01:25:33;;;;;;;1.98;1.88;;;18.70;54.40;;;;;;5084701;28;20052;-47
2021/11/15 01:28:00;;;;;;;1.58;1.38;;;18.70;54.40;;;;;;5087938;28;20037;-46
2021/11/15 01:30:27;;;;;;;2.80;1.85;;;18.70;54.40;;;;;;5089469;28;20044;-46
2021/11/15 01:32:55;;;;;;;1.75;1.65;;;18.70;54.40;;;;;;5095133;28;20555;-49
2021/11/15 01:35:23;;;;;;;2.00;1.88;;;18.70;54.30;;;;;;5093263;28;20050;-50
2021/11/15 01:37:52;;;;;;;2.00;1.88;;;18.70;54.30;;;;;;5094639;28;20484;-49
2021/11/15 01:40:25;;;;;;;1.80;1.70;;;18.70;54.30;;;;;;5082952;28;20417;-47
2021/11/15 01:42:54;;;;;;;2.08;1.98;;;18.70;54.30;;;;;;5088706;28;20049;-48
2021/11/15 01:45:24;;;;;;;2.30;1.67;;;18.70;54.30;;;;;;5101311;28;20225;-49
2021/11/15 01:47:52;;;;;;;1.95;1.80;;;18.70;54.30;;;;;;5089028;28;20044;-46
2021/11/15 01:50:19;;;;;;;2.05;1.83;;;18.70;54.30;;;;;;5089719;28;20047;-47
2021/11/15 01:52:48;;;;;;;4.55;1.15;;;18.70;54.30;;;;;;5089545;28;20042;-48
2021/11/15 01:55:17;;;;;;;1.67;1.58;;;18.70;54.30;;;;;;5093304;28;20048;-50
2021/11/15 01:57:45;;;;;;;3.10;2.00;;;18.70;54.30;;;;;;5084585;28;20044;-50
2021/11/15 02:00:15;;;;;;;1.48;1.45;;;18.70;54.30;;;;;;5090322;28;20435;-50
2021/11/15 02:02:43;;;;;;;1.15;1.08;;;18.70;54.30;;;;;;5088445;28;20237;-48
2021/11/15 02:05:11;;;;;;;1.90;1.80;;;18.60;54.30;;;;;;5088703;28;20410;-49
2021/11/15 02:07:38;;;;;;;2.50;2.35;;;18.70;54.30;;;;;;5087117;28;20042;-49
2021/11/15 02:10:08;;;;;;;1.70;1.60;;;18.60;54.20;;;;;;5098182;28;20051;-50
2021/11/15 02:12:36;;;;;;;1.80;1.70;;;18.60;54.20;;;;;;5085596;28;20036;-51
2021/11/15 02:15:05;;;;;;;1.60;1.50;;;18.60;54.20;;;;;;5099609;28;20047;-52
2021/11/15 02:17:33;;;;;;;1.98;1.90;;;18.60;54.20;;;;;;5095176;28;20047;-50
2021/11/15 02:20:06;;;;;;;1.63;1.52;;;18.60;54.10;;;;;;5092044;28;20039;-50
2021/11/15 02:22:34;;;;;;;1.35;1.25;;;18.60;54.20;;;;;;5088848;28;20044;-48
2021/11/15 02:25:06;;;;;;;1.05;0.82;;;18.60;54.10;;;;;;5083205;28;20044;-50
2021/11/15 02:27:34;;;;;;;1.98;1.88;;;18.60;54.10;;;;;;5083261;28;20564;-46
2021/11/15 02:30:01;;;;;;;1.65;1.55;;;18.60;54.10;;;;;;5087145;28;20044;-47
2021/11/15 02:32:28;;;;;;;1.90;1.80;;;18.60;54.10;;;;;;5088970;28;20075;-48
2021/11/15 02:34:55;;;;;;;1.30;1.20;;;18.60;54.10;;;;;;5087743;28;20032;-49
2021/11/15 02:37:24;;;;;;;2.13;1.48;;;18.60;54.00;;;;;;5094319;28;20051;-45
2021/11/15 02:39:53;;;;;;;2.65;1.70;;;18.60;54.10;;;;;;5086139;28;20045;-51
2021/11/15 02:42:20;;;;;;;1.35;1.35;;;18.60;54.00;;;;;;5104276;28;20119;-50
2021/11/15 02:44:47;;;;;;;2.33;2.10;;;18.60;54.00;;;;;;5090289;28;20048;-51
2021/11/15 02:47:15;;;;;;;1.55;1.50;;;18.60;54.00;;;;;;5084482;28;20040;-48
2021/11/15 02:49:41;;;;;;;1.30;1.30;;;18.60;54.00;;;;;;5087405;28;20044;-49
2021/11/15 02:52:09;;;;;;;2.38;1.85;;;18.60;53.90;;;;;;5093955;28;20050;-49
2021/11/15 02:54:36;;;;;;;1.70;1.60;;;18.60;53.90;;;;;;5085555;28;20048;-49
2021/11/15 02:57:06;;;;;;;2.67;1.45;;;18.60;53.90;;;;;;5086908;28;20109;-51
2021/11/15 02:59:33;;;;;;;1.67;1.58;;;18.60;53.90;;;;;;5083021;28;20046;-53
2021/11/15 03:02:00;;;;;;;2.22;2.03;;;18.60;53.90;;;;;;5089203;28;20075;-48
2021/11/15 03:04:27;;;;;;;1.55;1.45;;;18.60;53.90;;;;;;5092902;28;20044;-51
2021/11/15 03:06:54;;;;;;;2.08;1.75;;;18.60;53.90;;;;;;5083100;28;20043;-52
2021/11/15 03:09:21;;;;;;;4.18;1.80;;;18.60;53.80;;;;;;5100612;28;20047;-51
2021/11/15 03:11:48;;;;;;;1.60;1.55;;;18.60;53.80;;;;;;5088385;28;20051;-50
2021/11/15 03:14:16;;;;;;;1.75;1.70;;;18.60;53.80;;;;;;5088530;28;20040;-51
2021/11/15 03:16:43;;;;;;;3.10;1.70;;;18.60;53.80;;;;;;5085852;28;20043;-48
2021/11/15 03:19:10;;;;;;;1.52;1.45;;;18.60;53.80;;;;;;5088203;28;20516;-51
2021/11/15 03:21:37;;;;;;;2.25;2.15;;;18.60;53.80;;;;;;5088117;28;20047;-51
2021/11/15 03:24:05;;;;;;;1.55;1.45;;;18.60;53.80;;;;;;5094716;28;20039;-51
2021/11/15 03:26:33;;;;;;;1.95;1.45;;;18.50;53.70;;;;;;5098499;28;20067;-47
2021/11/15 03:29:02;;;;;;;1.98;1.88;;;18.60;53.70;;;;;;5092208;28;20079;-47
2021/11/15 03:31:32;;;;;;;1.80;1.58;;;18.50;53.60;;;;;;5089461;28;20039;-49
2021/11/15 03:34:02;;;;;;;1.70;1.60;;;18.60;53.70;;;;;;5085855;28;20040;-49
2021/11/15 03:36:29;;;;;;;2.63;1.90;;;18.60;53.70;;;;;;5088242;28;20044;-47
2021/11/15 03:38:58;;;;;;;1.65;1.55;;;18.50;53.60;;;;;;5092893;28;20086;-48
2021/11/15 03:41:26;;;;;;;1.60;1.50;;;18.50;53.60;;;;;;5096903;28;20511;-50
2021/11/15 03:43:53;;;;;;;1.65;1.55;;;18.50;53.60;;;;;;5082472;28;20127;-48
2021/11/15 03:46:21;;;;;;;1.75;1.65;;;18.50;53.60;;;;;;5088805;28;20139;-48
2021/11/15 03:48:50;;;;;;;1.98;1.77;;;18.50;53.60;;;;;;5087621;28;20091;-51
2021/11/15 03:51:18;;;;;;;1.38;1.27;;;18.50;53.60;;;;;;5070256;28;20032;-51
2021/11/15 03:53:45;;;;;;;1.33;1.23;;;18.50;53.60;;;;;;5091407;28;20048;-52
2021/11/15 03:56:15;;;;;;;1.10;1.00;;;18.50;53.60;;;;;;5092448;28;20496;-53
2021/11/15 03:58:44;;;;;;;1.75;1.60;;;18.50;53.60;;;;;;5090008;28;20050;-52
2021/11/15 04:01:13;;;;;;;1.77;1.67;;;18.50;53.60;;;;;;5098720;28;20040;-52
2021/11/15 04:03:43;;;;;;;1.50;1.40;;;18.50;53.50;;;;;;5087936;28;20134;-52
2021/11/15 04:06:22;;;;;;;1.40;1.30;;;18.50;53.50;;;;;;5090028;28;20226;-48
2021/11/15 04:08:49;;;;;;;1.83;1.60;;;18.50;53.60;;;;;;5095989;28;20047;-51
2021/11/15 04:11:19;;;;;;;1.75;1.73;;;18.50;53.50;;;;;;5089534;28;20071;-52
2021/11/15 04:13:49;;;;;;;1.92;1.83;;;18.50;53.50;;;;;;5095798;28;20052;-45
2021/11/15 04:16:17;;;;;;;1.63;1.52;;;18.50;53.50;;;;;;5100298;28;20043;-51
2021/11/15 04:18:47;;;;;;;1.67;1.58;;;18.50;53.50;;;;;;5082996;28;20256;-49
2021/11/15 04:21:16;;;;;;;2.17;1.50;;;18.50;53.50;;;;;;5092475;28;20051;-51
2021/11/15 04:23:43;;;;;;;1.50;1.27;;;18.50;53.50;;;;;;5096637;28;20043;-52
2021/11/15 04:26:10;;;;;;;1.40;1.30;;;18.50;53.50;;;;;;5089049;28;20520;-51
2021/11/15 04:28:38;;;;;;;1.95;1.85;;;18.50;53.40;;;;;;5085386;28;20036;-49
2021/11/15 04:31:05;;;;;;;2.15;2.05;;;18.50;53.40;;;;;;5096729;28;20040;-50
2021/11/15 04:33:32;;;;;;;2.05;1.52;;;18.50;53.50;;;;;;5101942;28;20050;-47
2021/11/15 04:35:59;;;;;;;1.98;1.88;;;18.50;53.40;;;;;;5102434;28;20054;-53
2021/11/15 04:38:27;;;;;;;3.13;1.67;;;18.50;53.40;;;;;;5085731;28;20040;-52
2021/11/15 04:40:54;;;;;;;2.15;1.92;;;18.50;53.40;;;;;;5094308;28;20036;-51
2021/11/15 04:43:22;;;;;;;1.67;1.58;;;18.50;53.40;;;;;;5099098;28;20046;-50
2021/11/15 04:45:49;;;;;;;1.40;1.30;;;18.50;53.40;;;;;;5069217;28;20044;-50
2021/11/15 04:48:16;;;;;;;2.08;1.90;;;18.50;53.40;;;;;;5087599;28;20047;-52
2021/11/15 04:50:44;;;;;;;1.45;1.35;;;18.50;53.40;;;;;;5098185;28;20051;-46
2021/11/15 04:53:11;;;;;;;1.92;1.80;;;18.50;53.30;;;;;;5091908;28;20439;-53
2021/11/15 04:55:39;;;;;;;2.00;1.90;;;18.50;53.40;;;;;;5086531;28;20813;-48
2021/11/15 04:58:07;;;;;;;1.90;1.75;;;18.50;53.30;;;;;;5085708;28;20032;-48
2021/11/15 05:00:36;;;;;;;2.00;1.90;;;18.40;53.30;;;;;;5085894;28;20044;-49
2021/11/15 05:03:03;;;;;;;2.47;2.10;;;18.40;53.80;;;;;;5091262;28;20051;-49
2021/11/15 05:05:30;;;;;;;1.73;1.63;;;18.40;53.30;;;;;;5095228;28;20042;-50
2021/11/15 05:07:57;;;;;;;2.00;1.90;;;18.40;53.20;;;;;;5093601;28;20043;-49
2021/11/15 05:10:26;;;;;;;2.22;2.13;;;18.40;53.30;;;;;;5083538;28;20500;-50
2021/11/15 05:12:56;;;;;;;2.97;2.60;;;18.40;53.20;;;;;;5088101;28;20416;-48
2021/11/15 05:15:23;;;;;;;2.38;2.28;;;18.40;53.20;;;;;;5102023;28;20048;-46
2021/11/15 05:17:51;;;;;;;1.75;1.40;;;18.40;53.20;;;;;;5089792;28;20040;-45
2021/11/15 05:20:20;;;;;;;1.90;1.80;;;18.50;53.30;;;;;;5086852;28;20060;-46
2021/11/15 05:22:48;;;;;;;1.85;1.75;;;18.40;53.20;;;;;;5089055;28;20038;-47
2021/11/15 05:25:17;;;;;;;2.25;2.15;;;18.40;53.20;;;;;;5097811;28;20103;-50
2021/11/15 05:27:44;;;;;;;2.38;1.75;;;18.40;53.20;;;;;;5086945;28;20424;-51
2021/11/15 05:30:14;;;;;;;2.53;2.30;;;18.40;53.20;;;;;;5088060;28;20044;-47
2021/11/15 05:32:41;;;;;;;1.23;1.15;;;18.40;53.20;;;;;;5096781;28;20036;-49
2021/11/15 05:35:10;;;;;;;4.90;2.35;;;18.40;53.80;;;;;;5091440;28;20039;-49
2021/11/15 05:37:37;;;;;;;1.35;1.25;;;18.40;53.20;;;;;;5089910;28;20516;-50
2021/11/15 05:40:06;;;;;;;1.45;1.35;;;18.40;53.20;;;;;;5084716;28;20036;-50
2021/11/15 05:42:33;;;;;;;2.15;2.05;;;18.40;53.20;;;;;;5083720;28;20044;-49
2021/11/15 05:45:00;;;;;;;2.13;2.03;;;18.30;53.10;;;;;;5087710;28;20048;-47
2021/11/15 05:47:29;;;;;;;1.58;1.48;;;18.30;53.10;;;;;;5089875;28;20062;-45
2021/11/15 05:49:56;;;;;;;3.42;2.47;;;18.40;53.20;;;;;;5083639;28;20165;-49
2021/11/15 05:52:23;;;;;;;1.65;1.58;;;18.30;53.10;;;;;;5087550;28;20040;-51
2021/11/15 05:54:51;;;;;;;2.13;1.98;;;18.30;53.10;;;;;;5087683;28;20596;-51
2021/11/15 05:57:18;;;;;;;1.40;1.30;;;18.30;53.10;;;;;;5092778;28;20039;-49
2021/11/15 05:59:46;;;;;;;2.35;2.25;;;18.30;53.20;;;;;;5085347;28;20055;-50
2021/11/15 06:02:13;;;;;;;2.40;2.20;;;18.40;53.20;;;;;;5091127;28;20580;-53
2021/11/15 06:04:42;;;;;;;1.90;1.80;;;18.30;53.10;;;;;;5087710;28;20028;-52
2021/11/15 06:07:09;;;;;;;2.08;1.95;;;18.40;53.20;;;;;;5097456;28;20523;-54
2021/11/15 06:09:36;;;;;;;2.03;1.80;;;18.30;53.10;;;;;;5092434;28;20040;-49
2021/11/15 06:12:04;;;;;;;2.67;2.55;;;18.30;53.10;;;;;;5087391;28;20052;-51
2021/11/15 06:14:31;;;;;;;2.08;1.98;;;18.30;53.10;;;;;;5093940;28;20040;-48
2021/11/15 06:16:58;;;;;;;1.95;1.85;;;18.30;53.10;;;;;;5092847;28;20043;-51
2021/11/15 06:19:25;;;;;;;2.50;2.33;;;18.30;53.10;;;;;;5089698;28;20044;-50
2021/11/15 06:21:54;;;;;;;2.63;2.53;;;18.30;53.10;;;;;;5084313;28;20043;-49
2021/11/15 06:24:21;;;;;;;3.42;2.17;;;18.30;53.10;;;;;;5087538;28;20070;-48
2021/11/15 06:26:48;;;;;;;1.95;1.75;;;18.30;53.10;;;;;;5085830;28;20044;-47
2021/11/15 06:29:15;;;;;;;2.08;1.98;;;18.40;53.20;;;;;;5086799;28;20427;-52
2021/11/15 06:31:42;;;;;;;1.90;1.80;;;18.30;53.10;;;;;;5089809;28;20124;-50
2021/11/15 06:34:09;;;;;;;2.03;1.67;;;18.30;53.10;;;;;;5085795;28;20397;-52
2021/11/15 06:36:36;;;;;;;1.75;1.63;;;18.30;53.10;;;;;;5085704;28;20044;-50
2021/11/15 06:39:05;;;;;;;1.92;1.83;;;18.30;53.00;;;;;;5105451;28;20036;-49
2021/11/15 06:41:35;;;;;;;1.73;1.63;;;18.30;53.00;;;;;;5084871;28;20126;-46
2021/11/15 06:44:02;;;;;;;1.90;1.80;;;18.30;53.00;;;;;;5085955;28;20082;-50
2021/11/15 06:46:30;;;;;;;2.00;1.90;;;18.30;53.00;;;;;;5086253;28;20132;-48
2021/11/15 06:48:57;;;;;;;1.65;1.55;;;18.30;53.00;;;;;;5098912;28;20459;-51
2021/11/15 06:51:25;;;;;;;2.00;1.90;;;18.30;53.00;;;;;;5087793;28;20146;-49
2021/11/15 06:53:52;;;;;;;2.13;2.03;;;18.30;53.00;;;;;;5086376;28;20040;-53
2021/11/15 06:56:20;;;;;;;2.35;2.25;;;18.30;53.00;;;;;;5091899;28;20042;-50
2021/11/15 06:58:48;;;;;;;1.88;1.77;;;18.30;52.90;;;;;;5074947;28;20127;-50
2021/11/15 07:01:15;;;;;;;2.15;1.98;;;18.30;52.90;;;;;;5085218;28;20135;-49
2021/11/15 07:03:43;;;;;;;2.38;2.08;;;18.30;53.00;;;;;;5083958;28;20041;-50
2021/11/15 07:06:10;;;;;;;3.15;2.88;;;18.30;52.90;;;;;;5086429;28;20072;-48
2021/11/15 07:08:37;;;;;;;2.08;1.88;;;18.30;52.90;;;;;;5090681;28;20062;-49
2021/11/15 07:11:04;;;;;;;1.88;1.73;;;18.30;52.90;;;;;;5089941;28;20471;-52
2021/11/15 07:13:33;;;;;;;1.55;1.45;;;18.30;52.90;;;;;;5084434;28;20037;-51
2021/11/15 07:16:00;;;;;;;3.10;2.85;;;18.30;52.90;;;;;;5097301;28;20040;-52
2021/11/15 07:18:28;;;;;;;1.73;1.63;;;18.30;52.90;;;;;;5084308;28;20499;-51
2021/11/15 07:20:56;;;;;;;2.25;1.90;;;18.30;52.90;;;;;;5084160;28;20055;-50
2021/11/15 07:23:23;;;;;;;1.70;1.60;;;18.30;52.90;;;;;;5093319;28;20051;-52
2021/11/15 07:25:50;;;;;;;1.88;1.77;;;18.30;52.90;;;;;;5077734;28;20094;-50
2021/11/15 07:28:18;;;;;;;2.58;2.38;;;18.30;52.90;;;;;;5078993;28;20044;-52
2021/11/15 07:30:48;;;;;;;1.95;1.83;;;18.30;52.90;;;;;;5075307;28;20040;-53
2021/11/15 07:33:16;;;;;;;4.35;3.08;;;18.30;52.90;;;;;;5081756;28;20131;-52
2021/11/15 07:35:43;;;;;;;2.30;2.05;;;18.30;52.90;;;;;;5081692;28;20113;-47
2021/11/15 07:38:10;;;;;;;2.17;1.85;;;18.30;52.80;;;;;;5080416;28;20044;-46
2021/11/15 07:40:38;;;;;;;2.97;2.00;;;18.30;52.90;;;;;;5085468;28;20113;-53
2021/11/15 07:43:05;;;;;;;2.80;1.95;;;18.30;52.80;;;;;;5077760;28;20523;-48
2021/11/15 07:45:32;;;;;;;3.63;2.10;;;18.30;52.80;;;;;;5083853;28;20044;-51
2021/11/15 07:48:00;;;;;;;2.03;1.95;;;18.30;52.80;;;;;;5099963;28;20046;-51
2021/11/15 07:50:27;;;;;;;1.73;1.63;;;18.30;52.80;;;;;;5087470;28;20409;-53
2021/11/15 07:52:55;;;;;;;3.28;2.50;;;18.30;52.70;;;;;;5081941;28;20613;-52
2021/11/15 07:55:22;;;;;;;2.33;2.22;;;18.30;52.80;;;;;;5083574;28;20135;-53
2021/11/15 07:57:49;;;;;;;5.55;2.97;;;18.30;52.80;;;;;;5096548;28;20599;-49
2021/11/15 08:00:20;;;;;;;1.95;1.85;;;18.30;52.70;;;;;;5084609;28;20080;-48
2021/11/15 08:02:48;;;;;;;1.95;1.85;;;18.30;52.70;;;;;;5107852;27;20047;-51
2021/11/15 08:05:19;;;;;;;2.78;1.90;;;18.40;52.80;;;;;;5093343;28;20075;-50
2021/11/15 08:07:48;;;;;;;6.88;2.78;;;18.30;53.20;;;;;;5088807;28;20106;-51
2021/11/15 08:10:18;;;;;;;3.78;2.20;;;18.30;52.70;;;;;;5080340;28;20040;-49
2021/11/15 08:12:49;;;;;;;3.58;2.08;;;18.30;52.70;;;;;;5078605;28;20146;-50
2021/11/15 08:15:18;;;;;;;2.05;1.40;;;18.40;52.70;;;;;;5084907;28;20048;-50
2021/11/15 08:17:46;;;;;;;3.05;2.30;;;18.30;52.60;;;;;;5086119;28;20040;-52
2021/11/15 08:20:16;;;;;;;3.15;2.25;;;18.30;52.60;;;;;;5094388;28;20105;-51
2021/11/15 08:22:47;;;;;;;2.75;2.08;;;18.30;52.60;;;;;;5096203;28;20036;-51
2021/11/15 08:25:49;;;;;;;1.98;1.88;;;18.30;52.60;;;;;;5086931;28;20136;-50
2021/11/15 08:28:16;;;;;;;4.20;2.33;;;18.30;52.50;;;;;;5086403;28;20543;-51
2021/11/15 08:30:44;;;;;;;2.97;2.50;;;18.30;52.60;;;;;;5085376;28;20036;-49
2021/11/15 08:33:12;;;;;;;3.88;2.88;;;18.30;52.50;;;;;;5088326;28;20043;-49
2021/11/15 08:35:41;;;;;;;2.88;2.67;;;18.30;52.60;;;;;;5085194;28;20040;-50
2021/11/15 08:38:40;;;;;;;2.90;2.70;;;18.30;52.50;;;;;;5077741;28;20071;-53
2021/11/15 08:41:08;;;;;;;7.10;2.88;;;18.30;52.50;;;;;;5089259;28;20047;-46
2021/11/15 08:43:36;;;;;;;22.98;3.35;;;18.30;52.50;;;;;;5086442;28;20512;-48
2021/11/15 08:46:04;;;;;;;4.30;3.20;;;18.30;52.50;;;;;;5086061;28;20046;-50
2021/11/15 08:48:31;;;;;;;5.28;2.08;;;18.30;52.50;;;;;;5102086;28;20117;-46
2021/11/15 08:51:01;;;;;;;5.45;2.55;;;18.30;52.40;;;;;;5111011;27;20051;-51
2021/11/15 08:53:28;;;;;;;4.05;2.20;;;18.30;52.40;;;;;;5081973;28;20161;-49
2021/11/15 08:55:55;;;;;;;5.55;2.63;;;18.30;52.40;;;;;;5084054;28;20036;-52
2021/11/15 08:58:22;;;;;;;6.65;2.28;;;18.30;52.40;;;;;;5083504;28;20113;-51
2021/11/15 09:00:50;;;;;;;10.85;4.10;;;18.30;52.40;;;;;;5092099;28;20042;-52
2021/11/15 09:03:17;;;;;;;13.93;4.70;;;18.30;52.90;;;;;;5087848;28;20051;-51
2021/11/15 09:05:46;;;;;;;17.70;4.57;;;18.30;52.30;;;;;;5089349;28;20134;-49
2021/11/15 09:08:15;;;;;;;8.82;4.25;;;18.30;52.40;;;;;;5074460;28;20119;-51
2021/11/15 09:10:42;;;;;;;8.80;4.03;;;18.30;52.30;;;;;;5088543;28;20519;-51
2021/11/15 09:13:09;;;;;;;14.50;4.47;;;18.40;52.30;;;;;;5096692;28;20067;-51
2021/11/15 09:15:36;;;;;;;10.27;3.92;;;18.30;52.30;;;;;;5086823;28;20044;-47
2021/11/15 09:18:04;;;;;;;12.25;4.35;;;18.30;52.30;;;;;;5093758;28;20127;-48
2021/11/15 09:20:32;;;;;;;8.32;4.00;;;18.40;52.40;;;;;;5087083;28;20386;-51
2021/11/15 09:22:59;;;;;;;10.30;4.13;;;18.40;52.30;;;;;;5087374;28;20044;-53
2021/11/15 09:25:28;;;;;;;16.50;4.18;;;18.30;52.30;;;;;;5089732;28;20430;-49
2021/11/15 09:27:56;;;;;;;13.88;4.10;;;18.40;52.30;;;;;;5084870;28;20515;-50
2021/11/15 09:30:23;;;;;;;9.98;4.07;;;18.40;52.30;;;;;;5093678;28;20526;-50
2021/11/15 09:32:50;;;;;;;20.85;4.93;;;18.40;52.30;;;;;;5089742;28;20427;-50
2021/11/15 09:35:19;;;;;;;15.95;5.35;;;18.40;52.20;;;;;;5086623;28;20514;-49
2021/11/15 09:37:47;;;;;;;18.83;4.35;;;18.40;52.20;;;;;;5085304;28;20055;-53
2021/11/15 09:40:14;;;;;;;19.58;4.00;;;18.40;52.20;;;;;;5085382;28;20044;-48
2021/11/15 09:42:43;;;;;;;11.48;4.40;;;18.40;52.20;;;;;;5087356;28;20058;-46
2021/11/15 09:45:11;;;;;;;16.23;4.18;;;18.40;52.20;;;;;;5098370;28;20055;-50
2021/11/15 09:47:41;;;;;;;11.80;4.40;;;18.40;52.10;;;;;;5083466;28;20040;-52
2021/11/15 09:50:10;;;;;;;11.50;4.75;;;18.40;52.70;;;;;;5086943;28;20048;-47
2021/11/15 09:52:38;;;;;;;9.65;3.72;;;18.40;52.10;;;;;;5086761;28;20040;-51
2021/11/15 09:55:06;;;;;;;10.13;3.05;;;18.40;52.10;;;;;;5091615;28;20051;-49
2021/11/15 09:57:38;;;;;;;6.60;3.85;;;18.50;52.10;;;;;;5085957;28;20040;-48
2021/11/15 10:00:09;;;;;;;12.50;3.95;;;18.40;52.10;;;;;;5088159;28;20475;-49
2021/11/15 10:02:40;;;;;;;9.80;4.53;;;18.40;52.00;;;;;;5091958;28;20131;-51
2021/11/15 10:05:09;;;;;;;11.00;3.53;;;18.40;52.00;;;;;;5080669;28;20044;-45
2021/11/15 10:07:39;;;;;;;10.02;4.70;;;18.50;52.10;;;;;;5088896;28;20051;-50
2021/11/15 10:10:38;;;;;;;12.73;2.78;;;18.50;52.00;;;;;;5083891;28;20036;-49
2021/11/15 10:13:17;;;;;;;7.63;3.72;;;18.50;51.90;;;;;;5080235;28;20050;-50
2021/11/15 10:15:51;;;;;;;13.77;3.97;;;18.40;52.00;;;;;;5085308;28;20043;-48
2021/11/15 10:18:22;;;;;;;14.35;3.45;;;18.40;52.00;;;;;;5089214;28;20059;-47
2021/11/15 10:20:53;;;;;;;8.98;4.22;;;18.40;52.00;;;;;;5098654;28;20063;-49
2021/11/15 10:23:31;;;;;;;7.85;3.60;;;18.40;52.00;;;;;;5089106;28;20046;-51
2021/11/15 10:26:02;;;;;;;6.28;3.13;;;18.50;52.10;;;;;;5084409;28;20164;-49
2021/11/15 10:28:32;;;;;;;10.57;3.92;;;18.50;52.10;;;;;;5083031;28;20040;-48
2021/11/15 10:31:00;;;;;;;7.22;3.03;;;18.50;52.10;;;;;;5084293;28;20036;-49
2021/11/15 10:33:38;;;;;;;6.78;2.80;;;18.50;52.10;;;;;;5086687;28;20055;-50
2021/11/15 10:36:06;;;;;;;13.65;2.58;;;18.50;52.00;;;;;;5092926;28;20044;-52
2021/11/15 10:38:50;;;;;;;8.95;3.17;;;18.50;52.00;;;;;;5086767;28;20137;-47
2021/11/15 10:41:19;;;;;;;7.00;3.33;;;18.60;52.00;;;;;;5085603;28;20047;-49
2021/11/15 10:43:47;;;;;;;8.65;3.10;;;18.60;52.00;;;;;;5087792;28;20123;-50
2021/11/15 10:46:33;;;;;;;8.45;3.03;;;18.60;52.00;;;;;;5097444;28;20047;-52
2021/11/15 10:49:07;;;;;;;9.63;3.08;;;18.60;52.00;;;;;;5084120;28;20032;-53
2021/11/15 10:51:48;;;;;;;6.68;3.03;;;18.60;52.00;;;;;;5084306;28;20046;-46
2021/11/15 10:54:43;;;;;;;4.68;2.97;;;18.60;52.00;;;;;;5097876;28;20047;-52
2021/11/15 10:57:32;;;;;;;8.73;2.90;;;18.60;51.90;;;;;;5085870;28;20043;-51
2021/11/15 11:00:19;;;;;;;7.00;2.92;;;18.60;51.90;;;;;;5086425;28;20044;-51
2021/11/15 11:02:48;;;;;;;;;;;18.70;52.00;;;;;;5097922;28;20483;-49
2021/11/15 11:05:18;;;;;;;4.70;3.08;;;18.50;51.90;;;;;;5089021;28;19928;-51
2021/11/15 11:07:47;;;;;;;6.60;3.08;;;18.60;52.10;;;;;;5071337;28;20538;-49
2021/11/15 11:10:17;;;;;;;5.93;2.53;;;18.60;52.00;;;;;;5084655;28;20197;-51
2021/11/15 11:12:59;;;;;;;8.93;2.85;;;18.60;52.00;;;;;;5080602;28;20125;-51
2021/11/15 11:15:33;;;;;;;4.68;2.67;;;18.60;51.90;;;;;;5087988;28;20035;-53
2021/11/15 11:18:08;;;;;;;9.40;3.60;;;18.70;51.90;;;;;;5085197;28;20040;-53
2021/11/15 11:23:48;;;;;;;6.60;2.13;;;18.70;51.80;;;;;;4999669;28;20100;-48
2021/11/15 11:26:17;;;;;;;6.22;3.05;;;18.60;51.80;;;;;;5013841;28;20061;-51
2021/11/15 11:28:47;;;;;;;7.30;3.92;;;18.60;51.90;;;;;;5011820;28;20041;-52
2021/11/15 11:31:15;;;;;;;4.32;3.15;;;18.70;51.90;;;;;;5003562;28;20042;-51
2021/11/15 11:33:44;;;;;;;4.55;2.92;;;18.70;51.80;;;;;;4999161;28;20042;-51
2021/11/15 11:36:12;;;;;;;5.40;3.30;;;18.70;51.80;;;;;;5014906;28;20046;-49
2021/11/15 11:38:42;;;;;;;4.28;3.90;;;18.70;51.80;;;;;;5011881;28;20049;-52
2021/11/15 11:41:10;;;;;;;5.38;3.03;;;18.70;51.70;;;;;;5015135;28;20086;-50
2021/11/15 11:43:38;;;;;;;7.18;3.05;;;18.60;51.60;;;;;;5005591;28;20514;-48
2021/11/15 11:46:05;;;;;;;3.45;2.53;;;18.60;51.60;;;;;;5002912;28;20081;-51
2021/11/15 11:48:34;;;;;;;4.55;3.03;;;18.60;51.60;;;;;;5005128;28;20058;-48
2021/11/15 11:51:02;;;;;;;7.05;4.78;;;18.60;51.60;;;;;;5008210;28;20054;-50
2021/11/15 11:53:33;;;;;;;6.00;3.05;;;18.60;51.60;;;;;;5009359;28;20046;-49
2021/11/15 11:56:13;;;;;;;4.82;2.83;;;18.60;51.60;;;;;;5004930;28;20049;-49
2021/11/15 11:58:43;;;;;;;4.28;3.03;;;18.60;51.60;;;;;;5006613;28;20041;-51
2021/11/15 12:01:16;;;;;;;3.65;3.10;;;18.60;51.70;;;;;;5053212;28;20036;-53
2021/11/15 12:04:19;;;;;;;5.45;3.55;;;18.60;51.70;;;;;;5085007;28;20044;-49
2021/11/15 12:06:49;;;;;;;6.45;4.53;;;18.60;51.60;;;;;;5082658;28;20466;-51
2021/11/15 12:09:18;;;;;;;6.13;3.97;;;18.50;51.60;;;;;;5089083;28;20844;-47
2021/11/15 12:11:54;;;;;;;4.47;3.35;;;18.50;51.60;;;;;;5094219;28;20052;-51
2021/11/15 12:14:32;;;;;;;3.55;3.05;;;18.50;51.60;;;;;;5088306;28;20559;-47
2021/11/15 12:17:05;;;;;;;5.03;3.40;;;18.50;51.60;;;;;;5081953;28;20040;-47
2021/11/15 12:20:04;;;;;;;4.85;3.63;;;18.50;51.60;;;;;;5086022;28;20044;-49
2021/11/15 12:22:44;;;;;;;3.97;3.40;;;18.50;51.60;;;;;;5081280;28;20040;-45
2021/11/15 12:25:13;;;;;;;5.30;3.67;;;18.50;51.60;;;;;;5086720;28;20044;-47
2021/11/15 12:27:46;;;;;;;5.57;4.10;;;18.50;51.70;;;;;;5085184;28;20122;-49
2021/11/15 12:30:16;;;;;;;5.63;3.60;;;18.50;51.60;;;;;;5084756;28;20032;-49
2021/11/15 12:32:45;;;;;;;4.38;3.38;;;18.50;51.70;;;;;;5087592;28;20443;-51
2021/11/15 12:35:13;;;;;;;7.18;4.88;;;18.50;51.60;;;;;;5089578;28;20042;-50
2021/11/15 12:37:45;;;;;;;7.78;5.80;;;18.50;51.60;;;;;;5084216;28;20036;-47
2021/11/15 12:40:32;;;;;;;7.88;3.80;;;18.50;51.60;;;;;;5089719;28;20064;-49
2021/11/15 12:43:13;;;;;;;4.70;3.58;;;18.50;51.50;;;;;;5086978;28;20048;-48
2021/11/15 12:45:48;;;;;;;4.85;4.13;;;18.50;51.60;;;;;;5085707;28;20032;-53
2021/11/15 12:48:33;;;;;;;5.25;3.83;;;18.50;51.50;;;;;;5085535;28;20055;-47
2021/11/15 12:51:11;;;;;;;5.93;4.53;;;18.50;51.50;;;;;;5101135;28;20119;-48
2021/11/15 12:53:42;;;;;;;6.63;5.07;;;18.50;51.50;;;;;;5094770;28;20047;-48
2021/11/15 12:56:12;;;;;;;6.65;3.63;;;18.50;51.60;;;;;;5085566;28;20040;-46
2021/11/15 12:58:44;;;;;;;5.95;4.57;;;18.50;51.60;;;;;;5088417;28;20085;-47
2021/11/15 13:01:13;;;;;;;6.90;3.90;;;18.50;51.60;;;;;;5085197;28;20050;-50